Emmetsburg, Iowa
Current Conditions -  °F | °C
As of 7:52 AM on Saturday 25 Oct 2014 (Local Time) from KEST Reporting Station
Clear Clear  
Wind Chill: 41°   Ceiling: Unl
Heat Index: 45°   Visibility: 10mi
Dew Point: 36°   Wind: 8mph
Humidity: 71%   Direction: 320°NW
Pressure: 30.08"   Gusts: NA
Location:  43.11°N, 94.68°W
Report Text: KEST 251252Z AUTO 32007KT 10SM CLR 07/02 A3008 RMK AO2 SLP189 T00720022
Loading
Personal Weather Stations






























Interactive Weather Map
Tropical Storm Tracking
New forecast layout! Learn more

10-Day Weather Forecast

Advertisements
Track Severe Weather on mobile